createdAt,value
2017-10-08T00:02:59.518Z,20.97
2017-10-08T00:07:03.738Z,20.96
2017-10-08T00:15:16.830Z,20.95
2017-10-08T00:19:20.570Z,20.94
2017-10-08T00:23:24.067Z,20.93
2017-10-08T00:35:45.264Z,20.89
2017-10-08T00:43:57.653Z,20.87
2017-10-08T01:00:28.542Z,20.83
2017-10-08T01:08:40.807Z,20.82
2017-10-08T01:12:45.031Z,20.81
2017-10-08T01:20:58.106Z,20.79
2017-10-08T01:25:01.915Z,20.78
2017-10-08T01:29:06.122Z,20.77
2017-10-08T01:33:10.657Z,20.76
2017-10-08T01:45:32.354Z,20.74
2017-10-08T01:53:45.684Z,20.73
2017-10-08T01:57:49.527Z,20.73
2017-10-08T02:06:02.906Z,20.71
2017-10-08T02:10:06.366Z,20.71
2017-10-08T02:14:10.123Z,20.70
2017-10-08T02:18:14.352Z,20.70
2017-10-08T02:26:26.816Z,20.69
2017-10-08T02:34:40.127Z,20.68
2017-10-08T02:38:43.972Z,20.67
2017-10-08T02:42:48.185Z,20.65
2017-10-08T02:46:52.723Z,20.66
2017-10-08T02:50:56.953Z,20.65
2017-10-08T03:03:19.654Z,20.63
2017-10-08T03:07:23.888Z,20.62
2017-10-08T03:11:27.694Z,20.61
2017-10-08T03:15:31.911Z,20.61
2017-10-08T03:32:04.102Z,20.58
2017-10-08T03:36:07.844Z,20.58
2017-10-08T03:40:11.290Z,20.58
2017-10-08T03:44:16.090Z,20.58
2017-10-08T03:52:28.474Z,20.56
2017-10-08T04:00:41.852Z,20.55
2017-10-08T04:08:55.123Z,20.54
2017-10-08T04:12:58.566Z,20.53
2017-10-08T04:21:11.018Z,20.52
2017-10-08T04:33:33.054Z,20.51
2017-10-08T04:54:12.361Z,20.48
2017-10-08T05:06:34.394Z,20.47
2017-10-08T05:10:38.615Z,20.46
2017-10-08T05:14:43.146Z,20.46
2017-10-08T05:22:56.223Z,20.44
2017-10-08T05:27:00.450Z,20.44
2017-10-08T05:31:04.258Z,20.43
2017-10-08T05:35:08.483Z,20.45
2017-10-08T05:43:21.524Z,20.50
2017-10-08T05:47:25.351Z,20.53
2017-10-08T05:51:29.570Z,20.56
2017-10-08T06:16:18.814Z,20.70
2017-10-08T06:20:22.552Z,20.72
2017-10-08T06:24:25.997Z,20.73
2017-10-08T06:32:39.173Z,20.75
2017-10-08T06:36:43.674Z,20.77
2017-10-08T06:44:56.047Z,20.78
2017-10-08T06:53:09.215Z,20.79
2017-10-08T06:57:12.669Z,20.80
2017-10-08T07:05:25.117Z,20.80
2017-10-08T07:09:28.857Z,20.81
2017-10-08T07:13:33.073Z,20.82
2017-10-08T07:30:03.474Z,20.85
2017-10-08T07:34:07.314Z,20.87
2017-10-08T07:46:29.126Z,20.86
2017-10-08T07:58:50.686Z,20.89
2017-10-08T08:11:13.411Z,20.91
2017-10-08T08:15:17.938Z,20.91
2017-10-08T08:19:22.225Z,20.90
2017-10-08T08:27:34.740Z,20.96
2017-10-08T08:31:38.493Z,21.00
2017-10-08T09:00:37.787Z,21.26
2017-10-08T09:08:50.975Z,21.33
2017-10-08T09:12:54.736Z,21.36
2017-10-08T09:21:07.211Z,21.43
2017-10-08T09:30:29.695Z,21.49
2017-10-08T09:34:33.910Z,21.51
2017-10-08T09:38:38.429Z,21.53
2017-10-08T09:42:41.895Z,21.55
2017-10-08T09:46:47.206Z,21.56
2017-10-08T09:50:51.409Z,21.55
2017-10-08T09:59:03.702Z,21.56
2017-10-08T10:03:07.494Z,21.57
2017-10-08T10:11:21.470Z,21.58
2017-10-08T10:15:25.687Z,21.58
2017-10-08T10:19:30.222Z,21.58
2017-10-08T10:23:34.438Z,21.58
2017-10-08T10:27:38.198Z,21.58
2017-10-08T10:31:41.647Z,21.59
2017-10-08T10:35:45.391Z,21.59
2017-10-08T10:48:07.437Z,21.59
2017-10-08T10:52:11.308Z,21.59
2017-10-08T10:56:14.762Z,21.59
2017-10-08T11:08:36.998Z,21.58
2017-10-08T11:12:41.223Z,21.59
2017-10-08T11:20:55.827Z,21.60
2017-10-08T11:29:09.792Z,21.60
2017-10-08T11:33:13.591Z,21.62
2017-10-08T11:37:17.039Z,21.61
2017-10-08T11:41:20.841Z,21.62
2017-10-08T11:45:25.044Z,21.61
2017-10-08T11:49:29.582Z,21.61
2017-10-08T11:53:33.081Z,21.60
2017-10-08T11:57:36.804Z,21.60
2017-10-08T12:01:40.247Z,21.60
2017-10-08T12:05:45.455Z,21.60
2017-10-08T12:09:48.900Z,21.61
2017-10-08T12:13:52.675Z,21.61
2017-10-08T12:17:56.110Z,21.61
2017-10-08T12:22:00.615Z,21.62
2017-10-08T12:26:04.043Z,21.62
2017-10-08T12:30:08.552Z,21.64
2017-10-08T12:34:11.983Z,21.65
2017-10-08T12:38:16.484Z,21.68
2017-10-08T12:42:19.918Z,21.70
2017-10-08T12:46:24.431Z,21.70
2017-10-08T12:50:27.881Z,21.70
2017-10-08T12:54:31.652Z,21.68
2017-10-08T12:58:35.095Z,21.68
2017-10-08T13:02:38.828Z,21.69
2017-10-08T13:06:42.266Z,21.68
2017-10-08T13:10:46.079Z,21.69
2017-10-08T13:14:49.538Z,21.69
2017-10-08T13:18:53.316Z,21.70
2017-10-08T13:22:57.515Z,21.70
2017-10-08T13:27:01.347Z,21.69
2017-10-08T13:31:04.785Z,21.70
2017-10-08T13:35:08.523Z,21.70
2017-10-08T13:39:11.965Z,21.70
2017-10-08T13:43:15.690Z,21.71
2017-10-08T13:47:19.101Z,21.71
2017-10-08T13:51:22.923Z,21.73
2017-10-08T13:55:27.124Z,21.74
2017-10-08T13:59:30.957Z,21.74
2017-10-08T14:03:34.383Z,21.74
2017-10-08T14:07:38.991Z,21.76
2017-10-08T14:11:42.417Z,21.76
2017-10-08T14:15:46.938Z,21.76
2017-10-08T14:19:51.136Z,21.75
2017-10-08T14:23:54.872Z,21.75
2017-10-08T14:27:58.321Z,21.75
2017-10-08T14:32:02.087Z,21.76
2017-10-08T14:36:05.512Z,21.77
2017-10-08T14:40:10.007Z,21.79
2017-10-08T14:44:13.456Z,21.81
2017-10-08T14:48:18.042Z,21.84
2017-10-08T14:52:21.488Z,21.86
2017-10-08T14:56:26.008Z,21.89
2017-10-08T15:00:29.453Z,21.90
2017-10-08T15:04:33.344Z,21.92
2017-10-08T15:08:37.552Z,21.94
2017-10-08T15:12:41.364Z,21.95
2017-10-08T15:16:44.857Z,21.97
2017-10-08T15:20:48.691Z,21.99
2017-10-08T15:24:52.115Z,22.00
2017-10-08T15:28:56.588Z,21.99
2017-10-08T15:33:00.011Z,21.98
2017-10-08T15:37:03.761Z,21.96
2017-10-08T15:41:07.967Z,21.95
2017-10-08T15:45:11.787Z,21.94
2017-10-08T15:49:15.215Z,21.93
2017-10-08T15:53:19.829Z,21.92
2017-10-08T15:57:23.462Z,21.91
2017-10-08T16:01:28.073Z,21.90
2017-10-08T16:05:31.505Z,21.91
2017-10-08T16:09:35.296Z,21.87
2017-10-08T16:13:38.732Z,21.85
2017-10-08T16:17:42.495Z,21.85
2017-10-08T16:21:45.936Z,21.85
2017-10-08T16:25:50.464Z,21.91
2017-10-08T16:29:54.657Z,21.91
2017-10-08T16:33:58.490Z,21.92
2017-10-08T16:38:01.928Z,21.91
2017-10-08T16:42:05.712Z,21.91
2017-10-08T16:46:09.235Z,21.91
2017-10-08T16:50:13.850Z,21.91
2017-10-08T16:54:17.285Z,21.91
2017-10-08T16:58:21.899Z,21.90
2017-10-08T17:02:25.343Z,21.90
2017-10-08T17:06:29.120Z,21.89
2017-10-08T17:10:32.546Z,21.88
2017-10-08T17:14:37.880Z,21.88
2017-10-08T17:18:41.429Z,21.88
2017-10-08T17:22:45.199Z,21.88
2017-10-08T17:26:48.625Z,21.88
2017-10-08T17:30:53.166Z,21.87
2017-10-08T17:34:56.603Z,21.88
2017-10-08T17:39:00.364Z,21.87
2017-10-08T17:43:03.859Z,21.87
2017-10-08T17:47:07.688Z,21.87
2017-10-08T17:51:11.134Z,21.86
2017-10-08T17:55:14.908Z,21.87
2017-10-08T17:59:18.345Z,21.86
2017-10-08T18:03:22.136Z,21.86
2017-10-08T18:07:26.363Z,21.86
2017-10-08T18:11:30.847Z,21.85
2017-10-08T18:15:34.292Z,21.85
2017-10-08T18:19:38.121Z,21.84
2017-10-08T18:23:42.323Z,21.85
2017-10-08T18:27:46.054Z,21.84
2017-10-08T18:31:50.258Z,21.84
2017-10-08T18:35:54.075Z,21.84
2017-10-08T18:39:57.568Z,21.83
2017-10-08T18:44:01.409Z,21.83
2017-10-08T18:48:04.852Z,21.83
2017-10-08T18:52:08.623Z,21.82
2017-10-08T18:56:12.051Z,21.82
2017-10-08T19:00:16.555Z,21.82
2017-10-08T19:04:19.987Z,21.82
2017-10-08T19:08:24.629Z,21.82
2017-10-08T19:12:28.068Z,21.81
2017-10-08T19:16:31.788Z,21.81
2017-10-08T19:20:35.239Z,21.81
2017-10-08T19:24:39.812Z,21.81
2017-10-08T19:28:43.235Z,21.81
2017-10-08T19:32:46.978Z,21.80
2017-10-08T19:36:50.416Z,21.80
2017-10-08T19:40:54.199Z,21.80
2017-10-08T19:44:57.631Z,21.79
2017-10-08T19:49:02.144Z,21.79
2017-10-08T19:53:05.584Z,21.79
2017-10-08T19:57:09.348Z,21.79
2017-10-08T20:01:12.788Z,21.78
2017-10-08T20:05:17.334Z,21.78
2017-10-08T20:09:20.800Z,21.77
2017-10-08T20:13:24.624Z,21.77
2017-10-08T20:17:28.042Z,21.76
2017-10-08T20:21:32.662Z,21.77
2017-10-08T20:25:36.096Z,21.76
2017-10-08T20:29:40.672Z,21.77
2017-10-08T20:33:44.127Z,21.76
2017-10-08T20:37:48.655Z,21.75
2017-10-08T20:41:52.855Z,21.75
2017-10-08T20:45:56.683Z,21.74
2017-10-08T20:50:00.123Z,21.74
2017-10-08T20:54:03.899Z,21.74
2017-10-08T20:58:07.355Z,21.73
2017-10-08T21:02:11.136Z,21.73
2017-10-08T21:06:15.334Z,21.73
2017-10-08T21:10:19.141Z,21.72
2017-10-08T21:14:22.568Z,21.73
2017-10-08T21:18:26.393Z,21.72
2017-10-08T21:22:29.832Z,21.70
2017-10-08T21:26:33.607Z,21.71
2017-10-08T21:30:37.041Z,21.72
2017-10-08T21:34:41.551Z,21.71
2017-10-08T21:38:44.978Z,21.71
2017-10-08T21:42:49.482Z,21.70
2017-10-08T21:46:52.906Z,21.69
2017-10-08T21:50:57.428Z,21.68
2017-10-08T21:55:00.861Z,21.67
2017-10-08T21:59:04.647Z,21.66
2017-10-08T22:03:08.082Z,21.65
2017-10-08T22:07:11.863Z,21.63
2017-10-08T22:11:15.316Z,21.62
2017-10-08T22:15:19.205Z,21.61
2017-10-08T22:19:23.415Z,21.60
2017-10-08T22:23:27.231Z,21.58
2017-10-08T22:27:30.668Z,21.58
2017-10-08T22:31:34.457Z,21.57
2017-10-08T22:35:38.654Z,21.56
2017-10-08T22:39:42.391Z,21.55
2017-10-08T22:43:45.900Z,21.53
2017-10-08T22:47:49.719Z,21.51
2017-10-08T22:51:53.919Z,21.51
2017-10-08T22:55:57.643Z,21.49
2017-10-08T23:00:01.081Z,21.48
2017-10-08T23:04:05.595Z,21.47
2017-10-08T23:08:09.024Z,21.45
2017-10-08T23:12:12.851Z,21.44
2017-10-08T23:16:16.284Z,21.43
2017-10-08T23:20:20.028Z,21.42
2017-10-08T23:24:23.463Z,21.40
2017-10-08T23:28:28.073Z,21.40
2017-10-08T23:32:31.508Z,21.38
2017-10-08T23:36:35.335Z,21.37
2017-10-08T23:40:38.768Z,21.35
2017-10-08T23:44:42.479Z,21.33
2017-10-08T23:48:45.902Z,21.33
2017-10-08T23:52:49.600Z,21.32
2017-10-08T23:56:53.019Z,21.30
